PWSweather.com
Personal Weather Stations
Station Observations
KCTHAMDEN
Dunbar Hill, Hamden, CT 06514

Dunbar HillHamden, CT 06514

Lat: 41.365437, Lon: -72.956532

Elevation: 200

Station Type: Davis Vantage Pro2+

Latest ConditionsUpdated 5:15:01 PM EST Sunday, Jan 20, 2019
Currently Today's Max Today's Min Today's Average
Temperature 25.8°F-3.4°C 33.4°F0.8°C 25.8°F-3.4°C 31.6°F-0.2°C
Dew Point 22.2°F-5.4°C 32.4°F0.2°C 22.2°F-5.4°C 30.2°F-1.0°C
Winds Calm Calm 7.6 mph -12.2 kmh - - 0.9 mph 1.4 kmh
Wind Gusts -- 11.0 mph17.7 kmh - -
Humidity 86% 96% 86% 95%
Pressure 29.44 in997.0 mb 29.92 in1013.2 mb 29.25 in990.5 mb -
Precipitation - 0.85 in21.6 mm - -
Hour Temp Dew Point Humidity Winds Wind Gusts Pressure Precip Precip Rate Daily Precip Total
05:15 PM 25.8°F-3.4°C 22.2°F-5.4°C 86% Calm Calm -- 29.44 in997.0 mb - 0.00 in0.0 mm 0.85 in21.6 mm
05:00 PM 26.4°F-3.1°C 23.3°F-4.8°C 88% Calm Calm -- 29.42 in996.3 mb - 0.00 in0.0 mm 0.85 in21.6 mm
04:45 PM 26.4°F-3.1°C 23.3°F-4.8°C 88% Calm Calm -- 29.39 in995.3 mb - 0.00 in0.0 mm 0.85 in21.6 mm
04:30 PM 26.6°F-3.0°C 23.5°F-4.7°C 88% Calm Calm -- 29.38 in994.9 mb - 0.00 in0.0 mm 0.85 in21.6 mm
04:15 PM 26.6°F-3.0°C 23.5°F-4.7°C 88% Calm Calm -- 29.37 in994.6 mb - 0.00 in0.0 mm 0.85 in21.6 mm
04:00 PM 26.7°F-2.9°C 23.4°F-4.8°C 87% Calm Calm -- 29.35 in993.9 mb - 0.00 in0.0 mm 0.85 in21.6 mm
03:45 PM 27.3°F-2.6°C 24.0°F-4.4°C 87% Calm Calm -- 29.33 in993.2 mb - 0.00 in0.0 mm 0.85 in21.6 mm
03:30 PM 29.1°F-1.6°C 26.3°F-3.2°C 89% Calm Calm -- 29.33 in993.2 mb - 0.00 in0.0 mm 0.85 in21.6 mm
03:15 PM 31.3°F-0.4°C 29.5°F-1.4°C 93% Calm Calm -- 29.33 in993.2 mb - 0.01 in0.3 mm 0.85 in21.6 mm
03:00 PM 32.4°F0.2°C 30.9°F-0.6°C 94% Calm Calm -- 29.32 in992.9 mb - 0.01 in0.3 mm 0.84 in21.3 mm
02:45 PM 33.0°F0.6°C 32.0°F0.0°C 96% Calm Calm -- 29.30 in992.2 mb - 0.00 in0.0 mm 0.83 in21.1 mm
02:30 PM 33.4°F0.8°C 32.4°F0.2°C 96% Calm Calm -- 29.28 in991.5 mb - 0.01 in0.3 mm 0.83 in21.1 mm
02:15 PM 33.4°F0.8°C 32.4°F0.2°C 96% Calm Calm -- 29.28 in991.5 mb - 0.01 in0.3 mm 0.82 in20.8 mm
02:00 PM 33.4°F0.8°C 32.4°F0.2°C 96% Calm Calm -- 29.27 in991.2 mb - 0.00 in0.0 mm 0.81 in20.6 mm
01:45 PM 33.3°F0.7°C 32.3°F0.2°C 96% Calm Calm -- 29.25 in990.5 mb - 0.00 in0.0 mm 0.81 in20.6 mm
01:30 PM 33.2°F0.7°C 32.2°F0.1°C 96% Calm Calm -- 29.27 in991.2 mb - 0.00 in0.0 mm 0.81 in20.6 mm
01:15 PM 33.0°F0.6°C 32.0°F0.0°C 96% Calm Calm -- 29.27 in991.2 mb - 0.01 in0.3 mm 0.81 in20.6 mm
01:00 PM 32.6°F0.3°C 31.6°F-0.2°C 96% Calm Calm -- 29.26 in990.9 mb - 0.01 in0.3 mm 0.81 in20.6 mm
12:45 PM 32.3°F0.2°C 31.2°F-0.4°C 96% Calm Calm -- 29.25 in990.5 mb - 0.01 in0.3 mm 0.80 in20.3 mm
12:15 PM 32.3°F0.2°C 31.3°F-0.4°C 96% Calm Calm -- 29.27 in991.2 mb - 0.01 in0.3 mm 0.77 in19.6 mm
12:00 PM 32.5°F0.3°C 31.5°F-0.3°C 96% Calm Calm -- 29.25 in990.5 mb - 0.01 in0.3 mm 0.76 in19.3 mm
10:30 AM 32.5°F0.3°C 31.5°F-0.3°C 96% Calm Calm -- 29.31 in992.6 mb - 0.00 in0.0 mm 0.73 in18.5 mm
10:15 AM 32.5°F0.3°C 31.5°F-0.3°C 96% Calm Calm -- 29.32 in992.9 mb - 0.00 in0.0 mm 0.73 in18.5 mm
10:00 AM 32.4°F0.2°C 31.4°F-0.3°C 96% Calm Calm -- 29.36 in994.2 mb - 0.02 in0.5 mm 0.73 in18.5 mm
09:45 AM 32.5°F0.3°C 31.5°F-0.3°C 96% Calm Calm -- 29.37 in994.6 mb - 0.02 in0.5 mm 0.71 in18.0 mm
09:30 AM 32.5°F0.3°C 31.5°F-0.3°C 96% Calm Calm -- 29.41 in995.9 mb - 0.02 in0.5 mm 0.69 in17.5 mm
09:15 AM 32.4°F0.2°C 31.4°F-0.3°C 96% Calm Calm -- 29.42 in996.3 mb - 0.02 in0.5 mm 0.67 in17.0 mm
09:00 AM 32.3°F0.2°C 31.3°F-0.4°C 96% Calm Calm -- 29.42 in996.3 mb - 0.02 in0.5 mm 0.65 in16.5 mm
08:45 AM 32.1°F0.1°C 31.1°F-0.5°C 96% Calm Calm -- 29.42 in996.3 mb - 0.00 in0.0 mm 0.63 in16.0 mm
08:30 AM 32.0°F0.0°C 31.0°F-0.6°C 96% Calm Calm -- 29.43 in996.6 mb - 0.02 in0.5 mm 0.63 in16.0 mm
08:15 AM 32.0°F0.0°C 31.0°F-0.6°C 96% Calm Calm -- 29.45 in997.3 mb - 0.04 in1.0 mm 0.61 in15.5 mm
08:00 AM 31.9°F-0.1°C 30.6°F-0.8°C 95% Calm Calm -- 29.47 in998.0 mb - 0.02 in0.5 mm 0.57 in14.5 mm
07:45 AM 31.7°F-0.2°C 30.4°F-0.9°C 95% Calm Calm -- 29.48 in998.3 mb - 0.02 in0.5 mm 0.55 in14.0 mm
07:30 AM 31.7°F-0.2°C 30.4°F-0.9°C 95% Calm Calm -- 29.50 in999.0 mb - 0.00 in0.0 mm 0.53 in13.5 mm
07:15 AM 31.9°F-0.1°C 30.9°F-0.6°C 96% Calm Calm -- 29.50 in999.0 mb - 0.02 in0.5 mm 0.53 in13.5 mm
07:00 AM 32.1°F0.1°C 30.8°F-0.7°C 95% Calm Calm -- 29.51 in999.3 mb - 0.00 in0.0 mm 0.51 in13.0 mm
06:45 AM 32.2°F0.1°C 30.9°F-0.6°C 95% Calm Calm -- 29.53 in1000.0 mb - 0.02 in0.5 mm 0.51 in13.0 mm
06:30 AM 32.4°F0.2°C 31.4°F-0.3°C 96% Calm Calm -- 29.54 in1000.3 mb - 0.02 in0.5 mm 0.49 in12.4 mm
06:15 AM 32.5°F0.3°C 31.5°F-0.3°C 96% Calm Calm -- 29.56 in1001.0 mb - 0.02 in0.5 mm 0.47 in11.9 mm
06:00 AM 32.6°F0.3°C 31.6°F-0.2°C 96% Calm Calm -- 29.58 in1001.7 mb - 0.04 in1.0 mm 0.45 in11.4 mm
05:45 AM 32.8°F0.4°C 31.5°F-0.3°C 95% Calm Calm -- 29.60 in1002.4 mb - 0.04 in1.0 mm 0.41 in10.4 mm
05:30 AM 32.8°F0.4°C 31.8°F-0.1°C 96% Calm Calm -- 29.60 in1002.4 mb - 0.04 in1.0 mm 0.37 in9.4 mm
05:15 AM 32.8°F0.4°C 31.8°F-0.1°C 96% Calm Calm -- 29.62 in1003.0 mb - 0.02 in0.5 mm 0.33 in8.4 mm
05:00 AM 32.8°F0.4°C 31.8°F-0.1°C 96% Calm Calm -- 29.62 in1003.0 mb - 0.02 in0.5 mm 0.31 in7.9 mm
04:45 AM 32.7°F0.4°C 31.7°F-0.2°C 96% Calm Calm -- 29.62 in1003.0 mb - 0.02 in0.5 mm 0.29 in7.4 mm
04:30 AM 32.7°F0.4°C 31.4°F-0.3°C 95% Calm Calm -- 29.65 in1004.1 mb - 0.00 in0.0 mm 0.27 in6.9 mm
04:15 AM 32.7°F0.4°C 31.4°F-0.3°C 95% Calm Calm -- 29.65 in1004.1 mb - 0.02 in0.5 mm 0.27 in6.9 mm
04:00 AM 32.7°F0.4°C 31.4°F-0.3°C 95% Calm Calm -- 29.69 in1005.4 mb - 0.02 in0.5 mm 0.25 in6.4 mm
03:45 AM 32.7°F0.4°C 31.4°F-0.3°C 95% Calm Calm -- 29.71 in1006.1 mb - 0.04 in1.0 mm 0.23 in5.8 mm
03:30 AM 32.6°F0.3°C 31.6°F-0.2°C 96% Calm Calm -- 29.75 in1007.5 mb - 0.04 in1.0 mm 0.19 in4.8 mm
03:15 AM 32.6°F0.3°C 31.6°F-0.2°C 96% 2.9 mph E4.7 kmh E 7.0 mph11.3 kmh 29.77 in1008.1 mb - 0.02 in0.5 mm 0.15 in3.8 mm
03:00 AM 32.4°F0.2°C 31.4°F-0.3°C 96% 2.1 mph E3.4 kmh E 5.0 mph8.0 kmh 29.77 in1008.1 mb - 0.03 in0.8 mm 0.13 in3.3 mm
02:45 AM 32.2°F0.1°C 30.9°F-0.6°C 95% 4.6 mph E7.4 kmh E 8.0 mph12.9 kmh 29.77 in1008.1 mb - 0.02 in0.5 mm 0.10 in2.5 mm
02:30 AM 32.1°F0.1°C 30.8°F-0.7°C 95% 5.2 mph E8.4 kmh E 8.0 mph12.9 kmh 29.79 in1008.8 mb - 0.03 in0.8 mm 0.08 in2.0 mm
02:15 AM 32.0°F0.0°C 30.7°F-0.7°C 95% 5.6 mph ESE9.0 kmh ESE 7.0 mph11.3 kmh 29.81 in1009.5 mb - 0.03 in0.8 mm 0.05 in1.3 mm
02:00 AM 31.8°F-0.1°C 30.5°F-0.8°C 95% 3.3 mph NW5.3 kmh NW 7.0 mph11.3 kmh 29.83 in1010.2 mb - 0.01 in0.3 mm 0.02 in0.5 mm
01:45 AM 31.7°F-0.2°C 30.4°F-0.9°C 95% 2.6 mph NE4.2 kmh NE 7.0 mph11.3 kmh 29.83 in1010.2 mb - 0.01 in0.3 mm 0.01 in0.3 mm
01:30 AM 31.6°F-0.2°C 30.3°F-0.9°C 95% 3.4 mph ENE5.5 kmh ENE 6.0 mph9.7 kmh 29.83 in1010.2 mb - 0.00 in0.0 mm 0.00 in0.0 mm
01:15 AM 31.4°F-0.3°C 30.1°F-1.1°C 95% 2.1 mph SE3.4 kmh SE 5.0 mph8.0 kmh 29.85 in1010.8 mb - 0.00 in0.0 mm 0.00 in0.0 mm
01:00 AM 31.1°F-0.5°C 29.8°F-1.2°C 95% 7.6 mph ENE12.2 kmh ENE 11.0 mph17.7 kmh 29.86 in1011.2 mb - 0.00 in0.0 mm 0.00 in0.0 mm
12:45 AM 30.7°F-0.7°C 29.4°F-1.4°C 95% 4.4 mph SW7.1 kmh SW 7.0 mph11.3 kmh 29.88 in1011.9 mb - 0.00 in0.0 mm 0.00 in0.0 mm
12:30 AM 30.3°F-0.9°C 29.0°F-1.7°C 95% 4.8 mph NE7.7 kmh NE 9.0 mph14.5 kmh 29.90 in1012.5 mb - 0.00 in0.0 mm 0.00 in0.0 mm
12:15 AM 30.2°F-1.0°C 28.9°F-1.7°C 95% 4.2 mph WNW6.8 kmh WNW 8.0 mph12.9 kmh 29.91 in1012.9 mb - 0.00 in0.0 mm 0.00 in0.0 mm
12:00 AM 30.1°F-1.1°C 28.6°F-1.9°C 94% 4.7 mph NE7.6 kmh NE 10.0 mph16.1 kmh 29.92 in1013.2 mb - 0.00 in0.0 mm 0.00 in0.0 mm